Time;durP1;ratioP1;P1;durP2;ratioP2;P2;SDS_P1;SDS_P2;PMS_P1;PMS_P2;Temp;Humidity;BMP_temperature;BMP_pressure;BME280_temperature;BME280_humidity;BME280_pressure;Samples;Min_cycle;Max_cycle;Signal;HPM_P1;HPM_P2
2023/12/07 04:01:53;;;;;;;2.22;2.03;;;22.80;25.90;;;;;;5283346;23;45196;-79
2023/12/07 04:04:23;;;;;;;2.72;2.03;;;22.80;26.00;;;;;;4951091;28;45220;-83
2023/12/07 04:06:50;;;;;;;2.28;2.03;;;22.80;26.00;;;;;;4950992;28;45487;-86
2023/12/07 04:09:15;;;;;;;2.70;2.15;;;22.70;26.00;;;;;;4944661;28;45574;-85
2023/12/07 04:11:41;;;;;;;2.57;2.13;;;22.70;26.00;;;;;;4947162;28;45220;-84
2023/12/07 04:14:07;;;;;;;2.83;2.35;;;22.70;26.00;;;;;;4949923;28;45214;-85
2023/12/07 04:16:33;;;;;;;2.17;1.98;;;22.70;26.00;;;;;;4938303;28;46460;-82
2023/12/07 04:18:59;;;;;;;2.40;2.10;;;22.70;26.00;;;;;;4962172;28;45216;-81
2023/12/07 04:21:25;;;;;;;2.33;2.08;;;22.70;26.00;;;;;;4960175;28;45031;-81
2023/12/07 04:23:50;;;;;;;2.40;2.20;;;22.70;26.00;;;;;;4965251;28;45180;-80
2023/12/07 04:26:16;;;;;;;2.38;2.17;;;22.70;26.00;;;;;;4962947;28;45308;-86
2023/12/07 04:28:42;;;;;;;2.28;2.00;;;22.70;26.00;;;;;;4984878;28;45377;-81
2023/12/07 04:31:08;;;;;;;2.42;2.13;;;22.70;26.00;;;;;;4937122;28;45338;-81
2023/12/07 04:33:33;;;;;;;2.10;1.75;;;22.70;26.00;;;;;;4959095;28;45290;-81
2023/12/07 04:36:00;;;;;;;3.08;2.28;;;22.70;26.00;;;;;;4937991;28;45564;-86
2023/12/07 04:38:26;;;;;;;2.30;2.10;;;22.60;26.00;;;;;;4959381;28;45312;-82
2023/12/07 04:40:51;;;;;;;2.28;2.00;;;22.70;26.00;;;;;;4960733;28;45319;-81
2023/12/07 04:43:18;;;;;;;2.35;2.10;;;22.60;26.00;;;;;;4958328;28;45588;-86
2023/12/07 04:45:47;;;;;;;2.30;2.00;;;22.60;26.00;;;;;;4959430;28;46426;-94
2023/12/07 04:48:12;;;;;;;2.50;2.20;;;22.60;26.00;;;;;;4965012;28;45267;-81
2023/12/07 04:50:38;;;;;;;3.30;2.50;;;22.60;26.00;;;;;;4927406;28;44914;-82
2023/12/07 04:53:03;;;;;;;2.30;2.03;;;22.60;26.00;;;;;;4941313;28;45189;-79
2023/12/07 04:55:29;;;;;;;2.60;2.13;;;22.60;26.00;;;;;;4948043;28;45821;-85
2023/12/07 04:57:55;;;;;;;3.57;2.60;;;22.60;26.00;;;;;;4946600;28;45257;-79
2023/12/07 05:00:24;;;;;;;2.40;2.20;;;22.60;26.00;;;;;;4959246;28;45289;-87
2023/12/07 05:02:51;;;;;;;2.73;2.20;;;22.60;26.10;;;;;;4974212;28;45060;-79
2023/12/07 05:05:17;;;;;;;3.10;2.28;;;22.60;26.10;;;;;;4975292;28;45187;-82
2023/12/07 05:07:42;;;;;;;3.08;2.38;;;22.50;26.00;;;;;;4939140;28;44757;-80
2023/12/07 05:10:11;;;;;;;3.15;2.40;;;22.50;26.00;;;;;;4929528;28;45204;-83
2023/12/07 05:12:36;;;;;;;2.50;2.30;;;22.50;26.00;;;;;;4943976;28;45232;-81
2023/12/07 05:15:06;;;;;;;2.90;2.23;;;22.50;26.00;;;;;;4946724;28;46153;-84
2023/12/07 05:17:32;;;;;;;2.35;2.15;;;22.50;26.10;;;;;;4949981;28;45313;-81
2023/12/07 05:19:58;;;;;;;3.67;2.67;;;22.50;26.00;;;;;;4944138;28;44926;-82
2023/12/07 05:22:24;;;;;;;2.30;2.10;;;22.50;26.00;;;;;;4960584;28;45366;-80
2023/12/07 05:24:50;;;;;;;2.40;2.20;;;22.50;26.00;;;;;;4961676;28;45197;-82
2023/12/07 05:27:16;;;;;;;2.90;2.40;;;22.50;26.00;;;;;;4932960;28;45246;-85
2023/12/07 05:29:42;;;;;;;2.72;2.40;;;22.50;26.00;;;;;;4941868;28;45317;-81
2023/12/07 05:32:07;;;;;;;3.40;2.55;;;22.50;26.00;;;;;;4956936;28;45130;-83
2023/12/07 05:34:35;;;;;;;2.88;2.58;;;22.50;26.10;;;;;;4958198;28;46854;-80
2023/12/07 05:37:01;;;;;;;2.85;2.30;;;22.40;26.00;;;;;;4956857;28;45559;-87
2023/12/07 05:39:26;;;;;;;2.60;2.40;;;22.40;26.00;;;;;;4919214;28;45029;-81
2023/12/07 05:41:53;;;;;;;2.87;2.30;;;22.40;26.10;;;;;;4927007;28;45345;-84
2023/12/07 05:44:21;;;;;;;3.60;2.80;;;22.40;26.10;;;;;;4961244;28;45852;-85
2023/12/07 05:46:48;;;;;;;2.90;2.58;;;22.50;26.10;;;;;;4957071;28;45529;-84
2023/12/07 05:49:14;;;;;;;2.40;2.20;;;22.40;26.10;;;;;;4941281;28;45660;-81
2023/12/07 05:51:41;;;;;;;3.30;2.50;;;22.40;26.00;;;;;;4963822;28;45425;-85
2023/12/07 05:54:07;;;;;;;2.50;2.30;;;22.40;26.00;;;;;;4958517;28;45413;-84
2023/12/07 05:56:33;;;;;;;3.00;2.47;;;22.40;26.00;;;;;;4933877;28;44848;-81
2023/12/07 05:58:58;;;;;;;2.55;2.35;;;22.30;26.00;;;;;;4964430;28;45264;-81
2023/12/07 06:01:24;;;;;;;2.83;2.42;;;22.40;26.00;;;;;;4933381;28;45222;-85
2023/12/07 06:03:50;;;;;;;3.20;2.60;;;22.30;26.00;;;;;;4971718;28;45517;-87
2023/12/07 06:06:16;;;;;;;4.45;2.92;;;22.30;26.00;;;;;;4975158;28;45219;-83
2023/12/07 06:08:42;;;;;;;2.97;2.30;;;22.30;26.00;;;;;;4950513;28;45180;-80
2023/12/07 06:11:07;;;;;;;2.80;2.50;;;22.30;26.00;;;;;;4937762;28;45205;-85
2023/12/07 06:13:33;;;;;;;2.92;2.40;;;22.30;26.00;;;;;;4929883;28;46397;-79
2023/12/07 06:16:01;;;;;;;2.63;2.43;;;22.30;26.00;;;;;;4940329;28;45272;-92
2023/12/07 06:18:26;;;;;;;3.67;2.80;;;22.30;26.00;;;;;;4957389;28;45543;-84
2023/12/07 06:20:52;;;;;;;3.70;2.67;;;22.30;26.00;;;;;;4940835;28;45084;-84
2023/12/07 06:23:18;;;;;;;3.13;2.83;;;22.30;26.00;;;;;;4955733;28;46235;-80
2023/12/07 06:25:44;;;;;;;3.43;2.70;;;22.30;26.00;;;;;;4962996;28;45171;-80
2023/12/07 06:28:10;;;;;;;2.97;2.60;;;22.30;26.00;;;;;;4964667;28;45134;-83
2023/12/07 06:30:36;;;;;;;2.83;2.45;;;22.30;26.00;;;;;;4940249;28;45591;-82
2023/12/07 06:33:01;;;;;;;3.17;2.65;;;22.20;26.00;;;;;;4932509;28;46083;-83
2023/12/07 06:35:27;;;;;;;3.40;2.45;;;22.20;26.00;;;;;;4935810;28;45213;-90
2023/12/07 06:37:53;;;;;;;3.25;2.53;;;22.20;26.00;;;;;;4975915;28;45383;-84
2023/12/07 06:40:20;;;;;;;3.57;3.10;;;22.20;26.50;;;;;;4944851;28;45576;-89
2023/12/07 06:42:45;;;;;;;3.13;2.63;;;22.20;26.00;;;;;;4962800;28;45001;-82
2023/12/07 06:45:14;;;;;;;3.15;2.60;;;22.20;26.00;;;;;;4961980;28;45463;-80
2023/12/07 06:47:44;;;;;;;3.10;2.80;;;22.20;26.00;;;;;;4974533;28;44897;-82
2023/12/07 06:50:10;;;;;;;3.70;2.97;;;22.20;26.00;;;;;;4965428;28;44934;-84
2023/12/07 06:52:37;;;;;;;3.28;2.58;;;22.20;26.00;;;;;;4960327;28;45787;-80
2023/12/07 06:55:10;;;;;;;4.20;2.88;;;22.20;26.00;;;;;;4950000;28;45177;-93
2023/12/07 06:57:36;;;;;;;3.30;2.70;;;22.10;26.00;;;;;;4949526;28;45193;-89
2023/12/07 07:00:24;;;;;;;3.73;2.73;;;22.10;26.00;;;;;;4946339;28;45669;-88
2023/12/07 07:03:24;;;;;;;3.37;2.87;;;22.20;26.10;;;;;;4969962;28;45187;-84
2023/12/07 07:10:32;;;;;;;3.75;2.92;;;22.10;26.00;;;;;;4981342;28;45161;-82
2023/12/07 07:17:57;;;;;;;5.45;3.53;;;22.00;26.10;;;;;;4805514;29;45562;-84
2023/12/07 07:20:44;;;;;;;4.82;3.00;;;22.00;26.10;;;;;;4823377;29;44714;-86
2023/12/07 08:22:41;;;;;;;4.00;3.67;;;21.90;26.20;;;;;;4884910;29;45313;-87
2023/12/07 08:30:36;;;;;;;4.97;3.88;;;22.00;26.20;;;;;;4818680;29;45199;-81
2023/12/07 08:34:53;;;;;;;4.60;3.72;;;22.00;26.20;;;;;;4802297;29;46057;-80
2023/12/07 08:42:48;;;;;;;4.45;3.80;;;22.00;26.20;;;;;;4737091;29;45232;-84
2023/12/07 08:49:56;;;;;;;4.20;3.80;;;22.00;26.20;;;;;;5070620;27;45101;-43
2023/12/07 08:52:21;;;;;;;4.30;3.90;;;22.10;26.20;;;;;;5051627;27;45251;-43
2023/12/07 08:54:47;;;;;;;5.30;4.27;;;22.10;26.30;;;;;;5044372;27;45700;-43
2023/12/07 08:57:12;;;;;;;4.67;4.00;;;22.10;26.40;;;;;;5040814;27;45876;-41
2023/12/07 08:59:38;;;;;;;4.33;3.93;;;22.20;26.30;;;;;;5063346;27;45164;-42
2023/12/07 09:02:04;;;;;;;5.63;4.40;;;22.20;26.20;;;;;;5041254;27;45284;-45
2023/12/07 09:04:29;;;;;;;4.13;3.73;;;22.20;26.30;;;;;;5056514;27;45368;-41
2023/12/07 09:06:55;;;;;;;4.67;4.07;;;22.20;26.20;;;;;;5032404;27;46480;-42
2023/12/07 09:09:22;;;;;;;5.40;4.10;;;22.20;26.20;;;;;;5057599;27;44970;-42
2023/12/07 09:11:47;;;;;;;4.57;4.05;;;22.30;26.30;;;;;;5051514;27;45301;-42
2023/12/07 09:14:13;;;;;;;4.60;4.20;;;22.30;26.20;;;;;;5060784;27;45431;-42
2023/12/07 09:16:45;;;;;;;4.97;4.20;;;22.30;26.20;;;;;;5040738;27;46423;-42
2023/12/07 09:19:12;;;;;;;5.32;4.40;;;22.30;26.20;;;;;;5057337;27;45494;-41
2023/12/07 09:21:38;;;;;;;4.82;4.32;;;22.40;26.20;;;;;;5035998;27;45450;-43
2023/12/07 09:24:05;;;;;;;5.65;4.55;;;22.40;26.20;;;;;;5056787;27;45035;-43
2023/12/07 09:26:31;;;;;;;4.95;4.30;;;22.40;26.20;;;;;;5050402;27;45638;-43
2023/12/07 09:28:57;;;;;;;5.50;4.80;;;22.50;26.20;;;;;;5062793;27;45483;-43
2023/12/07 09:31:22;;;;;;;4.87;4.37;;;22.50;26.20;;;;;;5045398;27;44809;-43
2023/12/07 09:33:48;;;;;;;4.97;4.10;;;22.50;26.20;;;;;;5059004;27;45257;-44
2023/12/07 09:36:18;;;;;;;5.40;4.43;;;22.50;26.20;;;;;;5048493;27;46641;-43
2023/12/07 09:38:44;;;;;;;5.03;4.53;;;22.60;26.20;;;;;;5059135;27;45528;-43
2023/12/07 09:41:09;;;;;;;5.40;4.57;;;22.60;26.20;;;;;;5049258;27;45449;-42
2023/12/07 09:43:35;;;;;;;6.13;4.90;;;22.60;26.20;;;;;;5065643;27;45637;-42
2023/12/07 09:46:00;;;;;;;5.47;4.30;;;22.70;26.20;;;;;;5044473;27;45293;-43
2023/12/07 09:48:26;;;;;;;5.77;4.57;;;22.70;26.10;;;;;;5028000;27;45491;-44
2023/12/07 09:50:52;;;;;;;5.20;4.70;;;22.70;26.10;;;;;;5036538;27;45481;-43
2023/12/07 09:53:18;;;;;;;5.07;4.57;;;22.70;26.50;;;;;;5038479;27;45298;-42
2023/12/07 09:55:43;;;;;;;4.90;4.37;;;22.70;26.10;;;;;;5034870;27;45671;-42
2023/12/07 09:58:09;;;;;;;5.27;4.20;;;22.80;26.10;;;;;;5039314;27;45543;-44
2023/12/07 10:00:35;;;;;;;4.93;4.30;;;22.80;26.00;;;;;;5017662;27;45511;-43
2023/12/07 10:03:00;;;;;;;4.93;4.30;;;22.90;26.00;;;;;;5024009;28;45003;-43
2023/12/07 10:05:26;;;;;;;4.70;4.20;;;22.90;26.00;;;;;;5019160;28;45545;-43
2023/12/07 10:07:51;;;;;;;4.93;4.43;;;22.90;25.90;;;;;;5020116;28;45852;-42
2023/12/07 10:10:18;;;;;;;4.88;4.20;;;23.00;25.90;;;;;;5015268;28;45532;-42
2023/12/07 10:12:51;;;;;;;5.05;4.30;;;23.10;25.90;;;;;;5028325;28;45472;-42
2023/12/07 10:15:17;;;;;;;4.83;4.40;;;23.10;25.90;;;;;;5006288;28;45459;-42
2023/12/07 10:17:52;;;;;;;4.70;4.20;;;23.10;25.80;;;;;;5015539;28;45280;-42
2023/12/07 10:20:23;;;;;;;4.60;4.07;;;23.20;25.80;;;;;;5013295;28;45297;-43
2023/12/07 10:22:49;;;;;;;4.35;3.78;;;23.20;25.80;;;;;;5026275;28;45338;-42
2023/12/07 10:25:14;;;;;;;4.20;3.80;;;23.20;25.80;;;;;;5009178;28;44806;-43
2023/12/07 10:27:43;;;;;;;4.55;4.00;;;23.30;25.80;;;;;;5024038;28;45742;-43
2023/12/07 10:30:11;;;;;;;4.35;3.90;;;23.30;25.70;;;;;;5019818;28;45361;-45
2023/12/07 10:32:38;;;;;;;4.57;3.90;;;23.30;25.70;;;;;;5009561;28;45345;-41
2023/12/07 10:35:07;;;;;;;4.10;3.70;;;23.40;25.70;;;;;;5018872;28;45459;-44
2023/12/07 10:37:33;;;;;;;4.50;3.85;;;23.40;25.70;;;;;;5000553;28;47952;-43
2023/12/07 10:39:59;;;;;;;3.85;3.42;;;23.40;25.70;;;;;;5024323;28;45311;-48
2023/12/07 10:42:25;;;;;;;4.10;3.70;;;23.50;25.70;;;;;;5014765;28;45156;-43
2023/12/07 10:44:53;;;;;;;4.03;3.63;;;23.50;25.60;;;;;;5025796;28;45515;-42
2023/12/07 10:47:18;;;;;;;4.03;3.47;;;23.50;25.60;;;;;;4999613;28;49553;-42
2023/12/07 10:49:44;;;;;;;4.38;3.33;;;23.50;25.60;;;;;;5019815;28;45389;-42
2023/12/07 10:52:13;;;;;;;4.07;3.67;;;23.60;25.60;;;;;;5014047;28;45330;-43
2023/12/07 10:54:50;;;;;;;4.00;3.50;;;23.50;26.10;;;;;;5022695;28;45423;-42
2023/12/07 10:57:15;;;;;;;3.83;3.45;;;23.60;25.60;;;;;;5009947;28;45736;-42
2023/12/07 10:59:42;;;;;;;3.97;3.42;;;23.60;25.60;;;;;;5028432;28;45478;-42
2023/12/07 11:02:09;;;;;;;3.65;3.35;;;23.60;25.50;;;;;;4999447;28;46062;-42
2023/12/07 11:04:34;;;;;;;3.70;3.40;;;23.60;25.50;;;;;;5020715;28;45041;-42
2023/12/07 11:07:03;;;;;;;4.13;3.30;;;23.60;25.50;;;;;;4994442;28;46067;-42
2023/12/07 11:09:31;;;;;;;3.97;3.35;;;23.70;25.50;;;;;;4985611;28;45935;-42
2023/12/07 11:12:01;;;;;;;3.87;3.47;;;23.70;25.50;;;;;;5009872;28;44841;-42
2023/12/07 11:14:26;;;;;;;3.97;3.40;;;23.70;25.50;;;;;;4989030;28;45221;-42
2023/12/07 11:16:53;;;;;;;3.78;3.20;;;23.70;25.50;;;;;;4994437;28;45788;-45
2023/12/07 11:19:41;;;;;;;3.38;3.08;;;23.70;25.50;;;;;;5016989;28;45803;-42
2023/12/07 11:22:08;;;;;;;3.40;3.10;;;23.70;25.50;;;;;;5014022;28;45705;-41
2023/12/07 11:24:33;;;;;;;3.27;2.97;;;23.70;25.50;;;;;;5019913;28;45435;-42
2023/12/07 11:26:59;;;;;;;4.30;3.23;;;23.70;25.90;;;;;;5011297;28;45230;-43
2023/12/07 11:29:25;;;;;;;3.37;2.97;;;23.80;25.50;;;;;;4997500;28;45704;-43
2023/12/07 11:31:51;;;;;;;3.42;3.13;;;23.80;25.50;;;;;;5003599;28;45389;-41
2023/12/07 11:34:39;;;;;;;3.30;3.00;;;23.80;25.50;;;;;;5021088;28;45778;-40
2023/12/07 11:37:11;;;;;;;3.80;2.95;;;23.80;25.50;;;;;;5010072;28;47814;-40
2023/12/07 11:39:38;;;;;;;3.22;2.92;;;23.80;25.50;;;;;;5023289;28;45412;-39
2023/12/07 11:42:15;;;;;;;3.40;3.10;;;23.80;25.50;;;;;;5011437;28;45620;-39
2023/12/07 11:44:41;;;;;;;3.53;3.15;;;23.80;25.50;;;;;;5021100;28;45414;-39
2023/12/07 11:47:07;;;;;;;3.35;3.05;;;23.80;25.50;;;;;;4999483;28;45927;-40
2023/12/07 11:49:33;;;;;;;3.22;2.92;;;23.80;25.50;;;;;;5017530;28;45439;-39
2023/12/07 11:54:27;;;;;;;2.92;2.55;;;23.80;25.50;;;;;;4991831;28;46360;-44
2023/12/07 11:56:56;;;;;;;3.03;2.77;;;23.80;25.50;;;;;;4987019;28;45145;-45
2023/12/07 11:59:24;;;;;;;2.80;2.60;;;23.90;25.50;;;;;;4991107;28;45563;-43
2023/12/07 12:01:51;;;;;;;2.95;2.63;;;23.90;25.50;;;;;;4976841;28;45430;-43
2023/12/07 12:04:17;;;;;;;3.10;2.75;;;23.90;25.50;;;;;;4973892;28;45292;-43
2023/12/07 12:06:45;;;;;;;3.10;2.70;;;23.90;25.50;;;;;;4978915;28;46721;-43
2023/12/07 12:09:17;;;;;;;3.10;2.80;;;23.90;25.40;;;;;;4989255;28;46352;-42
2023/12/07 12:11:46;;;;;;;3.00;2.70;;;23.90;25.40;;;;;;4980145;28;44984;-42
2023/12/07 12:14:16;;;;;;;3.25;2.65;;;23.90;25.40;;;;;;4992251;28;44995;-43
2023/12/07 12:16:42;;;;;;;3.00;2.60;;;23.90;25.40;;;;;;4950831;28;45237;-42
2023/12/07 12:19:08;;;;;;;2.90;2.50;;;23.90;25.50;;;;;;4990421;28;45399;-44
2023/12/07 12:21:35;;;;;;;3.25;2.63;;;23.90;25.50;;;;;;4981580;28;46461;-42
2023/12/07 12:24:01;;;;;;;3.00;2.70;;;23.90;25.50;;;;;;4982958;28;46226;-42
2023/12/07 12:26:26;;;;;;;3.27;2.77;;;23.90;25.50;;;;;;4975707;28;45939;-43
2023/12/07 12:28:52;;;;;;;2.90;2.53;;;23.90;25.40;;;;;;4984979;28;45804;-42
2023/12/07 12:31:18;;;;;;;2.92;2.50;;;23.90;25.40;;;;;;4959099;28;45332;-42
2023/12/07 12:33:43;;;;;;;3.20;2.73;;;23.90;25.40;;;;;;4985610;28;45669;-43
2023/12/07 12:36:10;;;;;;;3.97;2.70;;;23.90;25.40;;;;;;4981073;28;45611;-42
2023/12/07 12:38:36;;;;;;;3.25;2.88;;;23.90;25.40;;;;;;4982801;28;45287;-43
2023/12/07 12:41:03;;;;;;;2.90;2.60;;;23.90;25.40;;;;;;4944570;28;45819;-38
2023/12/07 12:43:30;;;;;;;2.50;2.30;;;23.90;25.40;;;;;;4977353;28;45136;-39
2023/12/07 12:45:57;;;;;;;2.55;2.35;;;23.90;25.40;;;;;;4968956;28;46305;-39
2023/12/07 12:48:23;;;;;;;3.22;2.65;;;24.00;25.50;;;;;;4979405;28;45890;-39
2023/12/07 12:50:49;;;;;;;2.80;2.60;;;23.90;25.50;;;;;;4977347;28;45749;-39
2023/12/07 12:53:14;;;;;;;3.57;2.33;;;23.90;25.40;;;;;;4995974;28;45507;-40
2023/12/07 12:55:41;;;;;;;2.80;2.50;;;23.90;25.40;;;;;;4992709;28;45789;-39
2023/12/07 12:58:07;;;;;;;2.60;2.28;;;23.90;25.40;;;;;;5003478;28;45182;-38
2023/12/07 13:00:34;;;;;;;2.70;2.33;;;23.90;25.40;;;;;;4986675;28;45241;-41
2023/12/07 13:03:03;;;;;;;3.17;2.50;;;23.90;25.40;;;;;;5002864;28;45201;-42
2023/12/07 13:05:28;;;;;;;3.05;2.47;;;24.00;25.50;;;;;;4991763;28;46843;-42
2023/12/07 13:07:54;;;;;;;3.25;2.38;;;24.00;25.50;;;;;;5001556;28;45825;-43
2023/12/07 13:10:20;;;;;;;2.92;2.58;;;23.90;25.40;;;;;;4997720;28;45201;-42
2023/12/07 13:12:46;;;;;;;2.72;2.47;;;23.90;25.50;;;;;;5003783;28;45495;-41
2023/12/07 13:15:15;;;;;;;3.00;2.50;;;23.90;25.40;;;;;;4995006;28;45900;-42
2023/12/07 13:17:41;;;;;;;3.20;2.63;;;23.90;25.40;;;;;;4994082;28;45492;-41
2023/12/07 13:20:10;;;;;;;2.60;2.25;;;23.90;25.50;;;;;;4994410;28;45298;-44
2023/12/07 13:22:43;;;;;;;2.65;2.35;;;23.90;25.50;;;;;;4977246;28;44927;-42
2023/12/07 13:25:09;;;;;;;2.53;2.20;;;24.00;25.50;;;;;;4999723;28;45552;-43
2023/12/07 13:27:34;;;;;;;2.22;2.03;;;23.90;25.50;;;;;;4995170;28;46345;-41
2023/12/07 13:30:00;;;;;;;3.00;2.50;;;23.90;25.40;;;;;;5006504;28;45271;-42
2023/12/07 13:32:26;;;;;;;3.10;2.30;;;23.90;25.50;;;;;;4986681;28;45477;-42
2023/12/07 13:34:52;;;;;;;2.77;2.43;;;23.90;25.50;;;;;;5007797;28;45128;-41
2023/12/07 13:37:17;;;;;;;2.60;2.25;;;23.90;25.50;;;;;;4993681;28;45268;-42
2023/12/07 13:39:43;;;;;;;2.38;2.10;;;23.90;25.50;;;;;;5007379;28;45309;-41
2023/12/07 13:42:09;;;;;;;2.30;2.10;;;23.90;25.50;;;;;;4994293;28;45554;-41
2023/12/07 13:44:35;;;;;;;2.87;2.27;;;23.90;25.50;;;;;;5010652;28;45709;-42
2023/12/07 13:47:01;;;;;;;2.90;2.08;;;23.90;25.50;;;;;;4995468;28;45829;-42
2023/12/07 13:49:27;;;;;;;2.55;2.10;;;24.00;25.50;;;;;;5008003;28;45716;-42
2023/12/07 13:51:52;;;;;;;3.67;2.40;;;23.90;25.50;;;;;;5000407;28;45739;-43
2023/12/07 13:54:18;;;;;;;2.63;2.40;;;23.90;25.50;;;;;;5009306;28;45900;-45
2023/12/07 13:56:43;;;;;;;2.57;2.20;;;23.90;25.50;;;;;;4983499;28;45386;-43
2023/12/07 13:59:12;;;;;;;1.93;1.83;;;23.90;25.50;;;;;;5004436;28;45234;-41
2023/12/07 14:01:39;;;;;;;2.22;2.03;;;23.90;25.50;;;;;;4987187;28;45202;-42
2023/12/07 14:04:05;;;;;;;2.53;2.23;;;23.90;25.50;;;;;;5001965;28;45248;-42
2023/12/07 14:06:34;;;;;;;2.20;2.00;;;23.90;25.50;;;;;;4995012;28;45529;-43
2023/12/07 14:09:00;;;;;;;2.60;2.10;;;23.90;25.50;;;;;;5008526;28;44932;-46
2023/12/07 14:11:26;;;;;;;3.03;2.08;;;23.90;25.50;;;;;;5001940;28;45340;-42
2023/12/07 14:13:54;;;;;;;2.22;2.03;;;23.90;25.50;;;;;;5008132;28;46050;-42
2023/12/07 14:16:20;;;;;;;2.10;1.90;;;24.00;25.60;;;;;;4992844;28;46690;-42
2023/12/07 14:18:46;;;;;;;2.55;2.05;;;23.90;25.50;;;;;;5005738;28;45181;-42
2023/12/07 14:21:12;;;;;;;2.43;2.23;;;23.90;25.50;;;;;;5000298;28;45427;-42
2023/12/07 14:23:39;;;;;;;2.70;2.40;;;23.90;25.50;;;;;;5002497;28;45827;-42
2023/12/07 14:26:05;;;;;;;2.58;2.05;;;23.90;25.60;;;;;;4998751;28;45380;-42
2023/12/07 14:28:33;;;;;;;2.20;2.00;;;23.90;25.60;;;;;;5007407;28;45276;-42
2023/12/07 14:30:59;;;;;;;2.60;2.22;;;23.90;25.50;;;;;;4991679;28;45369;-44
2023/12/07 14:33:25;;;;;;;2.13;1.93;;;23.90;25.60;;;;;;5009955;28;46528;-41
2023/12/07 14:35:50;;;;;;;2.30;1.90;;;23.90;25.60;;;;;;4998003;28;45653;-42
2023/12/07 14:38:16;;;;;;;2.47;2.27;;;23.90;25.50;;;;;;5005546;28;45268;-43
2023/12/07 14:40:41;;;;;;;2.50;2.23;;;23.90;25.60;;;;;;4996360;28;45293;-39
2023/12/07 14:43:07;;;;;;;2.10;1.80;;;23.90;25.60;;;;;;5005641;28;45972;-39
2023/12/07 14:45:33;;;;;;;2.70;2.07;;;23.90;25.60;;;;;;4988509;28;45277;-40
2023/12/07 14:47:58;;;;;;;2.70;2.33;;;23.90;25.60;;;;;;5009383;28;45579;-39
2023/12/07 14:50:24;;;;;;;2.70;2.10;;;23.90;25.60;;;;;;5000572;28;45885;-39
2023/12/07 14:52:49;;;;;;;2.20;2.00;;;23.90;25.60;;;;;;4999824;28;47383;-39
2023/12/07 14:55:15;;;;;;;2.53;2.10;;;23.90;25.60;;;;;;4995990;28;45688;-39
2023/12/07 14:57:41;;;;;;;2.10;1.90;;;23.90;25.60;;;;;;4992876;28;45488;-39
2023/12/07 15:00:10;;;;;;;2.33;2.13;;;23.80;25.50;;;;;;4995531;28;45420;-38
2023/12/07 15:02:35;;;;;;;2.17;1.80;;;23.80;25.60;;;;;;4987052;28;45822;-39
2023/12/07 15:05:01;;;;;;;2.50;2.03;;;23.80;25.60;;;;;;5005632;28;45688;-43
2023/12/07 15:07:27;;;;;;;2.42;2.10;;;23.80;25.50;;;;;;4998679;28;45664;-42
2023/12/07 15:09:53;;;;;;;2.30;2.10;;;23.80;25.50;;;;;;5009202;28;45214;-43
2023/12/07 15:12:19;;;;;;;2.15;1.90;;;23.80;25.50;;;;;;5001784;28;45600;-41
2023/12/07 15:14:45;;;;;;;2.63;2.20;;;23.80;25.50;;;;;;4989077;28;45376;-43
2023/12/07 15:17:11;;;;;;;2.63;2.20;;;23.80;25.50;;;;;;4985813;28;45075;-44
2023/12/07 15:19:37;;;;;;;2.92;2.22;;;23.80;25.60;;;;;;4980805;28;45439;-39
2023/12/07 15:22:03;;;;;;;2.67;2.28;;;23.80;25.50;;;;;;4990831;28;45246;-40
2023/12/07 15:24:28;;;;;;;2.60;2.40;;;23.80;25.50;;;;;;5010620;28;45344;-40
2023/12/07 15:26:54;;;;;;;2.63;2.43;;;23.80;25.50;;;;;;4985506;28;45660;-39
2023/12/07 15:29:19;;;;;;;2.33;2.13;;;23.80;25.60;;;;;;5009901;28;45113;-38
2023/12/07 15:31:45;;;;;;;2.40;2.10;;;23.80;25.60;;;;;;4984520;28;45699;-40
2023/12/07 15:34:11;;;;;;;2.50;2.30;;;23.80;25.50;;;;;;5006103;28;45218;-39
2023/12/07 15:36:37;;;;;;;3.13;2.00;;;23.80;25.50;;;;;;4993208;28;45292;-38
2023/12/07 15:39:02;;;;;;;2.60;2.40;;;23.70;25.50;;;;;;5004171;28;45280;-39
2023/12/07 15:41:28;;;;;;;2.40;2.20;;;23.70;25.50;;;;;;4999036;28;45688;-39
2023/12/07 15:43:54;;;;;;;2.83;2.40;;;23.80;25.50;;;;;;5006971;28;45243;-39
2023/12/07 15:46:20;;;;;;;2.85;2.58;;;23.70;25.50;;;;;;4988519;28;45171;-38
2023/12/07 15:48:46;;;;;;;2.45;2.20;;;23.70;25.50;;;;;;5004678;28;45277;-40
2023/12/07 15:51:11;;;;;;;2.80;2.50;;;23.70;25.50;;;;;;4999315;28;45294;-41
2023/12/07 15:53:38;;;;;;;3.53;2.53;;;23.70;25.50;;;;;;5006813;28;45347;-39
2023/12/07 15:56:04;;;;;;;3.10;2.53;;;23.70;25.40;;;;;;4998629;28;45535;-39
2023/12/07 15:58:29;;;;;;;2.55;2.35;;;23.70;25.50;;;;;;5007352;28;45160;-39
2023/12/07 16:00:55;;;;;;;2.53;2.33;;;23.70;25.40;;;;;;4984859;28;45601;-40
2023/12/07 16:03:21;;;;;;;2.80;2.47;;;23.70;25.40;;;;;;4983277;28;45282;-39
2023/12/07 16:05:46;;;;;;;3.00;2.47;;;23.70;25.40;;;;;;4987536;28;45301;-39
2023/12/07 16:08:12;;;;;;;2.67;2.40;;;23.70;25.40;;;;;;5003718;28;45242;-40
2023/12/07 16:10:38;;;;;;;3.10;2.50;;;23.70;25.40;;;;;;4996863;28;45349;-39
2023/12/07 16:13:03;;;;;;;2.60;2.37;;;23.70;25.40;;;;;;5004469;28;45670;-39
2023/12/07 16:15:29;;;;;;;3.13;2.47;;;23.70;25.40;;;;;;4989548;28;45156;-39
2023/12/07 16:17:55;;;;;;;2.70;2.20;;;23.70;25.40;;;;;;4995781;28;44669;-39
2023/12/07 16:20:21;;;;;;;2.45;2.25;;;23.70;25.40;;;;;;4995869;28;45486;-39
2023/12/07 16:22:46;;;;;;;2.95;2.33;;;23.70;25.40;;;;;;4999343;28;45163;-39
2023/12/07 16:25:12;;;;;;;2.73;2.40;;;23.70;25.40;;;;;;5000454;28;45179;-40
2023/12/07 16:27:38;;;;;;;2.70;2.50;;;23.60;25.40;;;;;;5003042;28;45833;-41
2023/12/07 16:30:10;;;;;;;2.83;2.38;;;23.60;25.40;;;;;;5005766;28;46157;-38
2023/12/07 16:32:35;;;;;;;2.30;2.10;;;23.60;25.30;;;;;;4985789;28;45008;-40
2023/12/07 16:35:02;;;;;;;2.67;2.22;;;23.60;25.30;;;;;;5002674;28;44989;-39
2023/12/07 16:37:33;;;;;;;2.67;2.30;;;23.60;25.40;;;;;;4998907;28;46094;-39
2023/12/07 16:39:58;;;;;;;3.10;2.28;;;23.60;25.30;;;;;;5006453;28;45241;-39
2023/12/07 16:42:24;;;;;;;2.70;2.47;;;23.60;25.30;;;;;;4999789;28;45233;-39
2023/12/07 16:44:51;;;;;;;3.00;2.42;;;23.60;25.30;;;;;;5007978;28;45498;-39
2023/12/07 16:47:17;;;;;;;2.95;2.40;;;23.60;25.30;;;;;;4987282;28;45564;-39
2023/12/07 16:49:43;;;;;;;2.47;2.27;;;23.60;25.30;;;;;;5009990;28;45847;-42
2023/12/07 16:52:08;;;;;;;2.50;2.30;;;23.60;25.30;;;;;;5000822;28;46510;-39
2023/12/07 16:54:34;;;;;;;2.30;2.10;;;23.50;25.20;;;;;;5003875;28;45232;-38
2023/12/07 16:57:00;;;;;;;2.90;2.47;;;23.50;25.30;;;;;;4986988;28;45797;-40
2023/12/07 16:59:25;;;;;;;3.30;2.60;;;23.50;25.20;;;;;;4998877;28;46786;-39
2023/12/07 17:01:51;;;;;;;2.90;2.50;;;23.50;25.30;;;;;;4950659;28;46018;-38
2023/12/07 17:04:18;;;;;;;2.97;2.63;;;23.50;25.30;;;;;;4992646;28;46198;-39
2023/12/07 17:06:44;;;;;;;2.95;2.45;;;23.50;25.20;;;;;;4979777;28;45556;-38
2023/12/07 17:09:10;;;;;;;2.78;2.42;;;23.50;25.30;;;;;;5008962;28;46000;-39
2023/12/07 17:11:35;;;;;;;3.10;2.80;;;23.50;25.30;;;;;;4970414;28;45880;-39
2023/12/07 17:14:01;;;;;;;2.87;2.53;;;23.50;25.30;;;;;;4999630;28;45320;-39
2023/12/07 17:16:26;;;;;;;3.47;2.70;;;23.50;25.20;;;;;;4990407;28;45164;-38
2023/12/07 17:18:54;;;;;;;2.60;2.40;;;23.50;25.20;;;;;;5000771;28;49809;-39
2023/12/07 17:21:19;;;;;;;3.03;2.72;;;23.50;25.20;;;;;;4994300;28;45185;-38
2023/12/07 17:23:45;;;;;;;3.57;2.70;;;23.50;25.20;;;;;;4996896;28;45117;-39
2023/12/07 17:26:11;;;;;;;2.90;2.57;;;23.50;25.20;;;;;;4990164;28;45233;-39
2023/12/07 17:28:38;;;;;;;3.92;2.83;;;23.50;25.20;;;;;;4998643;28;45521;-39
2023/12/07 17:31:03;;;;;;;2.80;2.50;;;23.40;25.10;;;;;;4972707;28;46383;-40
2023/12/07 17:33:29;;;;;;;3.70;3.08;;;23.40;25.20;;;;;;4996143;28;45040;-43
2023/12/07 17:35:54;;;;;;;3.15;2.85;;;23.40;25.10;;;;;;4991927;28;44983;-38
2023/12/07 17:38:20;;;;;;;3.65;3.05;;;23.40;25.20;;;;;;5005659;28;45353;-39
2023/12/07 17:40:45;;;;;;;3.07;2.77;;;23.40;25.10;;;;;;4991469;28;46363;-40
2023/12/07 17:43:11;;;;;;;3.47;3.00;;;23.40;25.20;;;;;;5000688;28;45509;-40
2023/12/07 17:45:38;;;;;;;3.10;2.80;;;23.40;25.10;;;;;;4966222;28;46101;-39
2023/12/07 17:48:10;;;;;;;4.80;3.20;;;23.40;25.20;;;;;;4993741;28;45731;-39
2023/12/07 17:50:36;;;;;;;3.10;2.78;;;23.30;25.20;;;;;;4989231;28;46000;-38
2023/12/07 17:53:01;;;;;;;4.28;3.30;;;23.30;25.20;;;;;;4998104;28;45868;-40
2023/12/07 17:55:27;;;;;;;4.00;3.13;;;23.30;25.20;;;;;;4993998;28;45356;-39
2023/12/07 17:57:52;;;;;;;4.33;3.00;;;23.30;25.20;;;;;;4998253;28;45183;-39
2023/12/07 18:00:18;;;;;;;3.67;3.20;;;23.30;25.20;;;;;;4987309;28;46558;-40
2023/12/07 18:02:44;;;;;;;3.38;3.08;;;23.30;25.20;;;;;;4996733;28;45202;-39
2023/12/07 18:05:10;;;;;;;3.50;3.20;;;23.30;25.20;;;;;;4967003;28;48309;-39
2023/12/07 18:07:35;;;;;;;3.30;3.00;;;23.30;25.20;;;;;;4999082;28;45443;-39
2023/12/07 18:10:01;;;;;;;4.00;3.40;;;23.30;25.20;;;;;;5006439;28;45986;-39
2023/12/07 18:12:26;;;;;;;3.67;3.20;;;23.30;25.20;;;;;;5001647;28;45360;-39
2023/12/07 18:14:52;;;;;;;3.90;3.40;;;23.30;25.20;;;;;;4991506;28;45989;-38